sensor_id;sensor_type;location;lat;lon;timestamp;pressure;altitude;pressure_sealevel;temperature;humidity
11444;BME280;5778;47.856;12.154;2023-04-07T00:02:04;96364.94;;;0.93;100.00
11444;BME280;5778;47.856;12.154;2023-04-07T00:04:31;96368.56;;;0.92;100.00
11444;BME280;5778;47.856;12.154;2023-04-07T00:06:58;96363.69;;;0.89;100.00
11444;BME280;5778;47.856;12.154;2023-04-07T00:09:25;96363.06;;;0.87;100.00
11444;BME280;5778;47.856;12.154;2023-04-07T00:11:53;96358.56;;;0.75;100.00
11444;BME280;5778;47.856;12.154;2023-04-07T00:14:46;96360.41;;;0.81;100.00
11444;BME280;5778;47.856;12.154;2023-04-07T00:17:13;96357.13;;;0.72;100.00
11444;BME280;5778;47.856;12.154;2023-04-07T00:19:40;96354.72;;;0.71;100.00
11444;BME280;5778;47.856;12.154;2023-04-07T00:22:08;96352.41;;;0.61;100.00
11444;BME280;5778;47.856;12.154;2023-04-07T00:24:57;96357.34;;;0.71;100.00
11444;BME280;5778;47.856;12.154;2023-04-07T00:27:26;96359.44;;;0.88;100.00
11444;BME280;5778;47.856;12.154;2023-04-07T00:29:52;96362.13;;;0.95;100.00
11444;BME280;5778;47.856;12.154;2023-04-07T00:32:20;96355.88;;;0.96;100.00
11444;BME280;5778;47.856;12.154;2023-04-07T00:35:05;96351.50;;;1.03;100.00
11444;BME280;5778;47.856;12.154;2023-04-07T00:37:32;96365.88;;;1.13;100.00
11444;BME280;5778;47.856;12.154;2023-04-07T00:39:59;96355.41;;;0.86;100.00
11444;BME280;5778;47.856;12.154;2023-04-07T00:42:27;96358.66;;;0.88;100.00
11444;BME280;5778;47.856;12.154;2023-04-07T00:48:17;96349.56;;;0.84;100.00
11444;BME280;5778;47.856;12.154;2023-04-07T00:50:44;96350.44;;;0.63;100.00
11444;BME280;5778;47.856;12.154;2023-04-07T00:56:34;96342.78;;;0.41;100.00
11444;BME280;5778;47.856;12.154;2023-04-07T00:59:04;96341.91;;;0.55;100.00
11444;BME280;5778;47.856;12.154;2023-04-07T01:01:34;96347.75;;;0.57;100.00
11444;BME280;5778;47.856;12.154;2023-04-07T01:07:33;96342.09;;;0.53;100.00
11444;BME280;5778;47.856;12.154;2023-04-07T01:10:11;96337.56;;;0.41;100.00
11444;BME280;5778;47.856;12.154;2023-04-07T01:13:04;96340.09;;;0.55;100.00
11444;BME280;5778;47.856;12.154;2023-04-07T01:15:34;96331.91;;;0.37;100.00
11444;BME280;5778;47.856;12.154;2023-04-07T01:18:08;96333.53;;;0.17;100.00
11444;BME280;5778;47.856;12.154;2023-04-07T01:20:37;96333.72;;;0.16;100.00
11444;BME280;5778;47.856;12.154;2023-04-07T01:23:15;96327.75;;;0.22;100.00
11444;BME280;5778;47.856;12.154;2023-04-07T01:25:56;96333.34;;;0.19;100.00
11444;BME280;5778;47.856;12.154;2023-04-07T01:28:45;96325.25;;;0.14;100.00
11444;BME280;5778;47.856;12.154;2023-04-07T01:31:17;96332.50;;;0.12;100.00
11444;BME280;5778;47.856;12.154;2023-04-07T01:34:02;96329.13;;;0.18;100.00
11444;BME280;5778;47.856;12.154;2023-04-07T01:36:30;96324.91;;;0.17;100.00
11444;BME280;5778;47.856;12.154;2023-04-07T01:38:58;96324.25;;;-0.06;100.00
11444;BME280;5778;47.856;12.154;2023-04-07T01:41:26;96322.28;;;-0.04;100.00
11444;BME280;5778;47.856;12.154;2023-04-07T01:43:55;96322.94;;;-0.17;100.00
11444;BME280;5778;47.856;12.154;2023-04-07T01:46:24;96328.38;;;0.03;100.00
11444;BME280;5778;47.856;12.154;2023-04-07T01:48:52;96321.78;;;-0.14;100.00
11444;BME280;5778;47.856;12.154;2023-04-07T01:51:19;96326.81;;;-0.13;100.00
11444;BME280;5778;47.856;12.154;2023-04-07T01:54:14;96321.38;;;-0.11;100.00
11444;BME280;5778;47.856;12.154;2023-04-07T01:56:41;96323.88;;;-0.03;100.00
11444;BME280;5778;47.856;12.154;2023-04-07T01:59:09;96321.09;;;-0.02;100.00
11444;BME280;5778;47.856;12.154;2023-04-07T02:01:37;96321.59;;;-0.13;100.00
11444;BME280;5778;47.856;12.154;2023-04-07T02:04:21;96316.66;;;-0.01;100.00
11444;BME280;5778;47.856;12.154;2023-04-07T02:06:53;96317.16;;;0.09;100.00
11444;BME280;5778;47.856;12.154;2023-04-07T02:09:32;96321.13;;;0.05;100.00
11444;BME280;5778;47.856;12.154;2023-04-07T02:12:02;96316.41;;;-0.06;100.00
11444;BME280;5778;47.856;12.154;2023-04-07T02:14:35;96314.47;;;0.02;100.00
11444;BME280;5778;47.856;12.154;2023-04-07T02:17:07;96315.38;;;0.09;100.00
11444;BME280;5778;47.856;12.154;2023-04-07T02:19:35;96305.34;;;0.13;100.00
11444;BME280;5778;47.856;12.154;2023-04-07T02:22:03;96310.06;;;0.24;100.00
11444;BME280;5778;47.856;12.154;2023-04-07T02:24:31;96301.16;;;0.18;100.00
11444;BME280;5778;47.856;12.154;2023-04-07T02:26:58;96308.31;;;0.10;100.00
11444;BME280;5778;47.856;12.154;2023-04-07T02:29:26;96301.28;;;0.10;100.00
11444;BME280;5778;47.856;12.154;2023-04-07T02:31:54;96294.13;;;0.19;100.00
11444;BME280;5778;47.856;12.154;2023-04-07T02:34:38;96301.28;;;-0.11;100.00
11444;BME280;5778;47.856;12.154;2023-04-07T02:37:05;96299.09;;;-0.28;100.00
11444;BME280;5778;47.856;12.154;2023-04-07T02:39:32;96291.94;;;-0.20;100.00
11444;BME280;5778;47.856;12.154;2023-04-07T02:41:59;96288.81;;;-0.15;100.00
11444;BME280;5778;47.856;12.154;2023-04-07T02:44:33;96287.63;;;-0.13;100.00
11444;BME280;5778;47.856;12.154;2023-04-07T02:47:01;96288.66;;;-0.07;100.00
11444;BME280;5778;47.856;12.154;2023-04-07T02:49:28;96292.03;;;0.08;100.00
11444;BME280;5778;47.856;12.154;2023-04-07T02:51:56;96286.28;;;0.19;100.00
11444;BME280;5778;47.856;12.154;2023-04-07T02:54:34;96289.03;;;0.11;100.00
11444;BME280;5778;47.856;12.154;2023-04-07T02:57:01;96291.28;;;0.14;100.00
11444;BME280;5778;47.856;12.154;2023-04-07T02:59:28;96281.91;;;0.26;100.00
11444;BME280;5778;47.856;12.154;2023-04-07T03:01:56;96288.56;;;0.28;100.00
11444;BME280;5778;47.856;12.154;2023-04-07T03:04:24;96278.59;;;0.11;100.00
11444;BME280;5778;47.856;12.154;2023-04-07T03:06:50;96278.88;;;0.22;100.00
11444;BME280;5778;47.856;12.154;2023-04-07T03:09:20;96277.09;;;0.02;100.00
11444;BME280;5778;47.856;12.154;2023-04-07T03:11:47;96271.44;;;-0.02;100.00
11444;BME280;5778;47.856;12.154;2023-04-07T03:17:27;96271.44;;;-0.22;100.00
11444;BME280;5778;47.856;12.154;2023-04-07T03:19:56;96271.56;;;-0.10;100.00
11444;BME280;5778;47.856;12.154;2023-04-07T03:22:24;96267.31;;;-0.11;100.00
11444;BME280;5778;47.856;12.154;2023-04-07T03:25:20;96275.34;;;0.09;100.00
11444;BME280;5778;47.856;12.154;2023-04-07T03:27:49;96270.09;;;0.09;100.00
11444;BME280;5778;47.856;12.154;2023-04-07T03:30:16;96266.47;;;0.03;100.00
11444;BME280;5778;47.856;12.154;2023-04-07T03:32:44;96268.84;;;0.05;100.00
11444;BME280;5778;47.856;12.154;2023-04-07T03:35:12;96270.88;;;0.03;100.00
11444;BME280;5778;47.856;12.154;2023-04-07T03:37:39;96274.13;;;-0.16;100.00
11444;BME280;5778;47.856;12.154;2023-04-07T03:42:39;96261.06;;;-0.16;100.00
11444;BME280;5778;47.856;12.154;2023-04-07T03:45:08;96266.28;;;-0.16;100.00
11444;BME280;5778;47.856;12.154;2023-04-07T03:47:40;96266.50;;;-0.11;100.00
11444;BME280;5778;47.856;12.154;2023-04-07T03:50:08;96261.00;;;-0.22;100.00
11444;BME280;5778;47.856;12.154;2023-04-07T03:52:44;96260.41;;;-0.18;100.00
11444;BME280;5778;47.856;12.154;2023-04-07T03:55:21;96268.81;;;-0.22;100.00
11444;BME280;5778;47.856;12.154;2023-04-07T03:57:52;96260.56;;;-0.26;100.00
11444;BME280;5778;47.856;12.154;2023-04-07T04:00:20;96260.16;;;-0.23;100.00
11444;BME280;5778;47.856;12.154;2023-04-07T04:03:02;96260.66;;;-0.13;100.00
11444;BME280;5778;47.856;12.154;2023-04-07T04:05:33;96265.91;;;-0.13;100.00
11444;BME280;5778;47.856;12.154;2023-04-07T04:08:00;96262.41;;;0.01;100.00
11444;BME280;5778;47.856;12.154;2023-04-07T04:10:27;96260.25;;;-0.17;100.00
11444;BME280;5778;47.856;12.154;2023-04-07T04:16:07;96258.03;;;0.08;100.00
11444;BME280;5778;47.856;12.154;2023-04-07T04:18:36;96257.72;;;0.17;100.00
11444;BME280;5778;47.856;12.154;2023-04-07T04:21:07;96256.78;;;0.04;100.00
11444;BME280;5778;47.856;12.154;2023-04-07T04:23:44;96257.28;;;0.14;100.00
11444;BME280;5778;47.856;12.154;2023-04-07T04:26:11;96253.66;;;0.15;100.00
11444;BME280;5778;47.856;12.154;2023-04-07T04:28:40;96257.94;;;0.22;100.00
11444;BME280;5778;47.856;12.154;2023-04-07T04:31:10;96253.53;;;0.23;100.00
11444;BME280;5778;47.856;12.154;2023-04-07T04:33:44;96249.63;;;0.40;100.00
11444;BME280;5778;47.856;12.154;2023-04-07T04:36:11;96251.97;;;0.56;100.00
11444;BME280;5778;47.856;12.154;2023-04-07T04:38:39;96248.53;;;0.55;100.00
11444;BME280;5778;47.856;12.154;2023-04-07T04:41:13;96248.88;;;0.46;100.00
11444;BME280;5778;47.856;12.154;2023-04-07T04:43:43;96251.78;;;0.57;100.00
11444;BME280;5778;47.856;12.154;2023-04-07T04:46:17;96251.78;;;0.57;100.00
11444;BME280;5778;47.856;12.154;2023-04-07T04:48:44;96248.19;;;0.65;100.00
11444;BME280;5778;47.856;12.154;2023-04-07T04:51:11;96249.66;;;0.74;100.00
11444;BME280;5778;47.856;12.154;2023-04-07T04:53:53;96252.53;;;0.85;100.00
11444;BME280;5778;47.856;12.154;2023-04-07T04:56:22;96252.19;;;0.95;100.00
11444;BME280;5778;47.856;12.154;2023-04-07T04:58:49;96245.16;;;1.02;100.00
11444;BME280;5778;47.856;12.154;2023-04-07T05:01:26;96248.25;;;1.25;100.00
11444;BME280;5778;47.856;12.154;2023-04-07T05:04:06;96253.38;;;1.46;100.00
11444;BME280;5778;47.856;12.154;2023-04-07T05:06:35;96243.56;;;1.67;100.00
11444;BME280;5778;47.856;12.154;2023-04-07T05:09:07;96253.88;;;1.88;100.00
11444;BME280;5778;47.856;12.154;2023-04-07T05:11:43;96248.44;;;2.09;100.00
11444;BME280;5778;47.856;12.154;2023-04-07T05:14:27;96249.25;;;2.23;100.00
11444;BME280;5778;47.856;12.154;2023-04-07T05:17:03;96241.59;;;2.21;100.00
11444;BME280;5778;47.856;12.154;2023-04-07T05:19:30;96246.00;;;2.34;100.00
11444;BME280;5778;47.856;12.154;2023-04-07T05:22:03;96242.41;;;2.35;100.00
11444;BME280;5778;47.856;12.154;2023-04-07T05:25:01;96242.00;;;2.18;100.00
11444;BME280;5778;47.856;12.154;2023-04-07T05:27:28;96246.63;;;2.29;100.00
11444;BME280;5778;47.856;12.154;2023-04-07T05:30:00;96250.47;;;2.33;100.00
11444;BME280;5778;47.856;12.154;2023-04-07T05:32:33;96250.88;;;2.37;100.00
11444;BME280;5778;47.856;12.154;2023-04-07T05:35:18;96246.81;;;2.28;100.00
11444;BME280;5778;47.856;12.154;2023-04-07T05:37:51;96246.81;;;2.28;100.00
11444;BME280;5778;47.856;12.154;2023-04-07T05:40:18;96250.88;;;2.24;100.00
11444;BME280;5778;47.856;12.154;2023-04-07T05:42:45;96249.44;;;2.28;100.00
11444;BME280;5778;47.856;12.154;2023-04-07T05:45:13;96253.28;;;2.32;100.00
11444;BME280;5778;47.856;12.154;2023-04-07T05:47:45;96249.25;;;2.36;100.00
11444;BME280;5778;47.856;12.154;2023-04-07T05:50:17;96255.72;;;2.40;100.00
11444;BME280;5778;47.856;12.154;2023-04-07T05:52:46;96245.59;;;2.50;100.00
11444;BME280;5778;47.856;12.154;2023-04-07T05:55:25;96244.19;;;2.54;100.00
11444;BME280;5778;47.856;12.154;2023-04-07T05:57:51;96244.19;;;2.54;100.00
11444;BME280;5778;47.856;12.154;2023-04-07T06:00:21;96245.59;;;2.50;100.00
11444;BME280;5778;47.856;12.154;2023-04-07T06:03:05;96245.59;;;2.63;100.00
11444;BME280;5778;47.856;12.154;2023-04-07T06:05:45;96249.63;;;2.65;100.00
11444;BME280;5778;47.856;12.154;2023-04-07T06:08:12;96251.44;;;2.78;100.00
11444;BME280;5778;47.856;12.154;2023-04-07T06:10:39;96252.03;;;2.80;100.00
11444;BME280;5778;47.856;12.154;2023-04-07T06:13:08;96252.84;;;2.74;100.00
11444;BME280;5778;47.856;12.154;2023-04-07T06:15:35;96249.22;;;2.75;100.00
11444;BME280;5778;47.856;12.154;2023-04-07T06:18:02;96252.81;;;2.93;100.00
11444;BME280;5778;47.856;12.154;2023-04-07T06:20:30;96245.94;;;2.79;100.00
11444;BME280;5778;47.856;12.154;2023-04-07T06:23:00;96244.69;;;3.01;100.00
11444;BME280;5778;47.856;12.154;2023-04-07T06:25:27;96240.44;;;3.07;100.00
11444;BME280;5778;47.856;12.154;2023-04-07T06:27:54;96243.09;;;2.94;100.00
11444;BME280;5778;47.856;12.154;2023-04-07T06:30:21;96244.72;;;2.95;100.00
11444;BME280;5778;47.856;12.154;2023-04-07T06:32:51;96237.19;;;3.11;100.00
11444;BME280;5778;47.856;12.154;2023-04-07T06:35:18;96232.13;;;3.10;100.00
11444;BME280;5778;47.856;12.154;2023-04-07T06:37:46;96234.94;;;3.15;100.00
11444;BME280;5778;47.856;12.154;2023-04-07T06:40:14;96232.88;;;3.30;100.00
11444;BME280;5778;47.856;12.154;2023-04-07T06:42:41;96231.00;;;3.37;100.00
11444;BME280;5778;47.856;12.154;2023-04-07T06:45:15;96234.00;;;3.47;100.00
11444;BME280;5778;47.856;12.154;2023-04-07T06:47:41;96241.66;;;3.55;100.00
11444;BME280;5778;47.856;12.154;2023-04-07T06:50:09;96231.63;;;3.70;100.00
11444;BME280;5778;47.856;12.154;2023-04-07T06:52:35;96227.56;;;3.74;100.00
11444;BME280;5778;47.856;12.154;2023-04-07T06:55:07;96228.97;;;3.76;100.00
11444;BME280;5778;47.856;12.154;2023-04-07T06:57:34;96229.66;;;3.65;100.00
11444;BME280;5778;47.856;12.154;2023-04-07T07:00:01;96226.22;;;3.65;100.00
11444;BME280;5778;47.856;12.154;2023-04-07T07:02:28;96234.69;;;3.67;100.00
11444;BME280;5778;47.856;12.154;2023-04-07T07:04:57;96233.47;;;3.69;100.00
11444;BME280;5778;47.856;12.154;2023-04-07T07:07:24;96232.59;;;3.82;100.00
11444;BME280;5778;47.856;12.154;2023-04-07T07:09:51;96236.16;;;3.94;100.00
11444;BME280;5778;47.856;12.154;2023-04-07T07:12:19;96231.56;;;4.14;100.00
11444;BME280;5778;47.856;12.154;2023-04-07T07:14:47;96229.22;;;4.24;100.00
11444;BME280;5778;47.856;12.154;2023-04-07T07:17:14;96222.63;;;4.39;100.00
11444;BME280;5778;47.856;12.154;2023-04-07T07:19:41;96219.94;;;4.46;100.00
11444;BME280;5778;47.856;12.154;2023-04-07T07:22:08;96220.31;;;4.49;100.00
11444;BME280;5778;47.856;12.154;2023-04-07T07:24:56;96223.03;;;4.61;100.00
11444;BME280;5778;47.856;12.154;2023-04-07T07:27:25;96225.78;;;4.72;100.00
11444;BME280;5778;47.856;12.154;2023-04-07T07:29:52;96220.72;;;4.89;100.00
11444;BME280;5778;47.856;12.154;2023-04-07T07:32:19;96221.91;;;5.11;100.00
11444;BME280;5778;47.856;12.154;2023-04-07T07:35:02;96220.00;;;5.18;100.00
11444;BME280;5778;47.856;12.154;2023-04-07T07:37:29;96215.53;;;5.18;100.00
11444;BME280;5778;47.856;12.154;2023-04-07T07:39:57;96206.50;;;5.26;100.00
11444;BME280;5778;47.856;12.154;2023-04-07T07:42:26;96209.28;;;5.31;100.00
11444;BME280;5778;47.856;12.154;2023-04-07T07:45:05;96202.16;;;5.49;100.00
11444;BME280;5778;47.856;12.154;2023-04-07T07:47:33;96202.94;;;5.79;100.00
11444;BME280;5778;47.856;12.154;2023-04-07T07:50:02;96210.97;;;6.02;100.00
11444;BME280;5778;47.856;12.154;2023-04-07T07:52:29;96212.25;;;6.11;100.00
11444;BME280;5778;47.856;12.154;2023-04-07T07:54:57;96205.59;;;6.09;100.00
11444;BME280;5778;47.856;12.154;2023-04-07T07:57:26;96215.81;;;6.28;100.00
11444;BME280;5778;47.856;12.154;2023-04-07T07:59:52;96217.22;;;6.31;100.00
11444;BME280;5778;47.856;12.154;2023-04-07T08:02:19;96207.94;;;6.51;100.00
11444;BME280;5778;47.856;12.154;2023-04-07T08:08:08;96202.22;;;6.66;100.00
11444;BME280;5778;47.856;12.154;2023-04-07T08:10:35;96200.59;;;6.53;100.00
11444;BME280;5778;47.856;12.154;2023-04-07T08:13:14;96208.63;;;6.35;100.00
11444;BME280;5778;47.856;12.154;2023-04-07T08:15:41;96202.88;;;6.38;100.00
11444;BME280;5778;47.856;12.154;2023-04-07T08:18:07;96199.66;;;6.48;100.00
11444;BME280;5778;47.856;12.154;2023-04-07T08:20:35;96194.84;;;6.68;100.00
11444;BME280;5778;47.856;12.154;2023-04-07T08:23:04;96202.06;;;6.84;100.00
11444;BME280;5778;47.856;12.154;2023-04-07T08:25:30;96208.28;;;6.89;100.00
11444;BME280;5778;47.856;12.154;2023-04-07T08:27:57;96205.66;;;6.89;100.00
11444;BME280;5778;47.856;12.154;2023-04-07T08:30:25;96206.53;;;6.95;100.00
11444;BME280;5778;47.856;12.154;2023-04-07T08:33:04;96196.19;;;7.05;100.00
11444;BME280;5778;47.856;12.154;2023-04-07T08:35:31;96201.00;;;7.08;100.00
11444;BME280;5778;47.856;12.154;2023-04-07T08:37:58;96203.50;;;7.26;100.00
11444;BME280;5778;47.856;12.154;2023-04-07T08:40:27;96202.84;;;7.07;100.00
11444;BME280;5778;47.856;12.154;2023-04-07T08:42:59;96198.59;;;6.95;100.00
11444;BME280;5778;47.856;12.154;2023-04-07T08:45:28;96196.63;;;7.13;100.00
11444;BME280;5778;47.856;12.154;2023-04-07T08:47:58;96192.97;;;7.42;100.00
11444;BME280;5778;47.856;12.154;2023-04-07T08:50:30;96197.63;;;7.63;100.00
11444;BME280;5778;47.856;12.154;2023-04-07T08:53:25;96189.63;;;7.75;100.00
11444;BME280;5778;47.856;12.154;2023-04-07T08:55:59;96187.34;;;7.67;100.00
11444;BME280;5778;47.856;12.154;2023-04-07T08:58:28;96186.31;;;7.96;100.00
11444;BME280;5778;47.856;12.154;2023-04-07T09:00:57;96187.47;;;8.33;100.00
11444;BME280;5778;47.856;12.154;2023-04-07T09:03:32;96185.53;;;8.61;100.00
11444;BME280;5778;47.856;12.154;2023-04-07T09:06:00;96180.09;;;9.06;100.00
11444;BME280;5778;47.856;12.154;2023-04-07T09:08:27;96183.34;;;9.13;100.00
11444;BME280;5778;47.856;12.154;2023-04-07T09:10:55;96179.56;;;9.09;100.00
11444;BME280;5778;47.856;12.154;2023-04-07T09:13:24;96176.41;;;8.90;100.00
11444;BME280;5778;47.856;12.154;2023-04-07T09:15:51;96179.72;;;9.19;100.00
11444;BME280;5778;47.856;12.154;2023-04-07T09:18:20;96165.22;;;9.74;100.00
11444;BME280;5778;47.856;12.154;2023-04-07T09:20:54;96171.47;;;10.11;100.00
11444;BME280;5778;47.856;12.154;2023-04-07T09:26:42;96163.88;;;10.61;100.00
11444;BME280;5778;47.856;12.154;2023-04-07T09:29:17;96162.16;;;10.82;100.00
11444;BME280;5778;47.856;12.154;2023-04-07T09:31:45;96158.34;;;11.09;100.00
11444;BME280;5778;47.856;12.154;2023-04-07T09:37:33;96154.94;;;11.24;100.00
11444;BME280;5778;47.856;12.154;2023-04-07T09:40:00;96151.84;;;11.52;100.00
11444;BME280;5778;47.856;12.154;2023-04-07T09:42:28;96150.88;;;11.73;98.30
11444;BME280;5778;47.856;12.154;2023-04-07T09:44:57;96148.38;;;11.51;87.39
11444;BME280;5778;47.856;12.154;2023-04-07T09:47:28;96148.25;;;11.83;78.74
11444;BME280;5778;47.856;12.154;2023-04-07T09:49:55;96142.91;;;12.03;78.54
11444;BME280;5778;47.856;12.154;2023-04-07T09:52:25;96140.81;;;12.00;74.06
11444;BME280;5778;47.856;12.154;2023-04-07T09:55:14;96139.47;;;12.02;74.93
11444;BME280;5778;47.856;12.154;2023-04-07T09:57:42;96138.66;;;12.07;73.58
11444;BME280;5778;47.856;12.154;2023-04-07T10:00:10;96138.75;;;11.30;77.83
11444;BME280;5778;47.856;12.154;2023-04-07T10:02:41;96143.84;;;11.52;80.18
11444;BME280;5778;47.856;12.154;2023-04-07T10:05:08;96138.03;;;11.60;80.77
11444;BME280;5778;47.856;12.154;2023-04-07T10:07:35;96132.22;;;11.73;75.63
11444;BME280;5778;47.856;12.154;2023-04-07T10:10:03;96139.53;;;11.36;75.63
11444;BME280;5778;47.856;12.154;2023-04-07T10:12:36;96134.06;;;11.67;76.02
11444;BME280;5778;47.856;12.154;2023-04-07T10:15:04;96132.53;;;11.86;74.90
11444;BME280;5778;47.856;12.154;2023-04-07T10:17:32;96133.16;;;11.42;71.37
11444;BME280;5778;47.856;12.154;2023-04-07T10:20:00;96124.69;;;10.88;72.12
11444;BME280;5778;47.856;12.154;2023-04-07T10:22:28;96129.31;;;11.08;74.08
11444;BME280;5778;47.856;12.154;2023-04-07T10:24:59;96122.28;;;11.53;79.21
11444;BME280;5778;47.856;12.154;2023-04-07T10:27:30;96126.94;;;11.93;72.24
11444;BME280;5778;47.856;12.154;2023-04-07T10:30:00;96130.94;;;12.15;71.66
11444;BME280;5778;47.856;12.154;2023-04-07T10:32:28;96125.31;;;12.52;69.23
11444;BME280;5778;47.856;12.154;2023-04-07T10:34:59;96125.06;;;12.58;66.17
11444;BME280;5778;47.856;12.154;2023-04-07T10:37:27;96128.50;;;12.69;66.15
11444;BME280;5778;47.856;12.154;2023-04-07T10:40:28;96126.06;;;12.92;63.75
11444;BME280;5778;47.856;12.154;2023-04-07T10:42:58;96122.06;;;12.85;66.66
11444;BME280;5778;47.856;12.154;2023-04-07T10:45:52;96123.13;;;13.04;63.40
11444;BME280;5778;47.856;12.154;2023-04-07T10:48:21;96117.28;;;13.02;63.00
11444;BME280;5778;47.856;12.154;2023-04-07T10:51:12;96121.06;;;12.66;62.44
11444;BME280;5778;47.856;12.154;2023-04-07T10:57:10;96116.53;;;12.51;61.23
11444;BME280;5778;47.856;12.154;2023-04-07T10:59:40;96114.41;;;12.53;56.44
11444;BME280;5778;47.856;12.154;2023-04-07T11:02:30;96108.69;;;13.15;57.32
11444;BME280;5778;47.856;12.154;2023-04-07T11:05:00;96106.91;;;13.49;56.31
11444;BME280;5778;47.856;12.154;2023-04-07T11:07:45;96103.69;;;13.57;54.95
11444;BME280;5778;47.856;12.154;2023-04-07T11:10:13;96109.72;;;13.72;53.31
11444;BME280;5778;47.856;12.154;2023-04-07T11:12:41;96105.13;;;13.78;55.31
11444;BME280;5778;47.856;12.154;2023-04-07T11:15:18;96101.72;;;14.11;56.80
11444;BME280;5778;47.856;12.154;2023-04-07T11:18:05;96101.72;;;13.24;56.09
11444;BME280;5778;47.856;12.154;2023-04-07T11:20:43;96101.41;;;13.25;56.46
11444;BME280;5778;47.856;12.154;2023-04-07T11:23:12;96099.91;;;13.63;59.43
11444;BME280;5778;47.856;12.154;2023-04-07T11:25:41;96094.31;;;13.59;54.07
11444;BME280;5778;47.856;12.154;2023-04-07T11:28:09;96094.94;;;13.41;54.45
11444;BME280;5778;47.856;12.154;2023-04-07T11:30:37;96097.50;;;13.03;55.04
11444;BME280;5778;47.856;12.154;2023-04-07T11:33:08;96093.94;;;13.76;54.99
11444;BME280;5778;47.856;12.154;2023-04-07T11:35:34;96085.81;;;14.29;54.72
11444;BME280;5778;47.856;12.154;2023-04-07T11:38:01;96084.41;;;13.60;54.36
11444;BME280;5778;47.856;12.154;2023-04-07T11:40:33;96088.06;;;13.79;54.75
11444;BME280;5778;47.856;12.154;2023-04-07T11:43:15;96090.09;;;14.30;52.91
11444;BME280;5778;47.856;12.154;2023-04-07T11:45:42;96082.53;;;14.66;52.50
11444;BME280;5778;47.856;12.154;2023-04-07T11:48:27;96077.38;;;14.46;50.21
11444;BME280;5778;47.856;12.154;2023-04-07T11:50:55;96080.41;;;14.63;50.98
11444;BME280;5778;47.856;12.154;2023-04-07T11:53:57;96078.59;;;14.30;49.96
11444;BME280;5778;47.856;12.154;2023-04-07T11:56:24;96071.38;;;14.30;48.41
11444;BME280;5778;47.856;12.154;2023-04-07T11:58:52;96074.13;;;14.20;50.82
11444;BME280;5778;47.856;12.154;2023-04-07T12:01:20;96066.38;;;13.37;49.50
11444;BME280;5778;47.856;12.154;2023-04-07T12:03:58;96063.53;;;14.05;51.35
11444;BME280;5778;47.856;12.154;2023-04-07T12:06:27;96058.38;;;14.47;48.49
11444;BME280;5778;47.856;12.154;2023-04-07T12:08:55;96056.97;;;14.55;48.15
11444;BME280;5778;47.856;12.154;2023-04-07T12:11:22;96060.38;;;14.60;45.81
11444;BME280;5778;47.856;12.154;2023-04-07T12:13:49;96052.34;;;14.60;46.06
11444;BME280;5778;47.856;12.154;2023-04-07T12:16:16;96057.66;;;13.65;46.00
11444;BME280;5778;47.856;12.154;2023-04-07T12:18:44;96049.31;;;14.43;46.47
11444;BME280;5778;47.856;12.154;2023-04-07T12:21:12;96052.75;;;14.96;46.13
11444;BME280;5778;47.856;12.154;2023-04-07T12:23:41;96062.38;;;15.44;45.43
11444;BME280;5778;47.856;12.154;2023-04-07T12:26:07;96060.31;;;16.10;45.23
11444;BME280;5778;47.856;12.154;2023-04-07T12:28:36;96055.31;;;16.35;42.14
11444;BME280;5778;47.856;12.154;2023-04-07T12:31:03;96053.59;;;15.57;43.76
11444;BME280;5778;47.856;12.154;2023-04-07T12:34:06;96051.81;;;15.29;43.21
11444;BME280;5778;47.856;12.154;2023-04-07T12:36:35;96048.00;;;15.35;43.36
11444;BME280;5778;47.856;12.154;2023-04-07T12:39:02;96051.31;;;15.50;44.07
11444;BME280;5778;47.856;12.154;2023-04-07T12:41:29;96048.03;;;15.72;43.87
11444;BME280;5778;47.856;12.154;2023-04-07T12:44:10;96051.28;;;15.08;43.45
11444;BME280;5778;47.856;12.154;2023-04-07T12:46:37;96051.31;;;15.27;43.21
11444;BME280;5778;47.856;12.154;2023-04-07T12:49:03;96050.94;;;15.15;43.40
11444;BME280;5778;47.856;12.154;2023-04-07T12:51:30;96052.00;;;15.14;45.48
11444;BME280;5778;47.856;12.154;2023-04-07T12:54:17;96045.91;;;15.87;46.16
11444;BME280;5778;47.856;12.154;2023-04-07T12:56:44;96048.94;;;15.02;43.30
11444;BME280;5778;47.856;12.154;2023-04-07T12:59:12;96044.16;;;14.75;44.24
11444;BME280;5778;47.856;12.154;2023-04-07T13:01:39;96044.56;;;15.11;44.30
11444;BME280;5778;47.856;12.154;2023-04-07T13:04:08;96048.84;;;15.30;45.86
11444;BME280;5778;47.856;12.154;2023-04-07T13:06:35;96049.69;;;15.07;46.13
11444;BME280;5778;47.856;12.154;2023-04-07T13:09:02;96048.38;;;14.81;44.97
11444;BME280;5778;47.856;12.154;2023-04-07T13:11:31;96048.44;;;14.48;45.54
11444;BME280;5778;47.856;12.154;2023-04-07T13:14:23;96045.16;;;13.94;46.95
11444;BME280;5778;47.856;12.154;2023-04-07T13:16:50;96047.69;;;14.14;46.92
11444;BME280;5778;47.856;12.154;2023-04-07T13:19:16;96045.59;;;14.39;48.63
11444;BME280;5778;47.856;12.154;2023-04-07T13:21:43;96044.16;;;14.75;47.32
11444;BME280;5778;47.856;12.154;2023-04-07T13:24:10;96043.00;;;15.28;48.38
11444;BME280;5778;47.856;12.154;2023-04-07T13:26:38;96043.09;;;14.48;45.66
11444;BME280;5778;47.856;12.154;2023-04-07T13:29:05;96034.00;;;14.72;48.56
11444;BME280;5778;47.856;12.154;2023-04-07T13:31:32;96032.31;;;14.81;49.18
11444;BME280;5778;47.856;12.154;2023-04-07T13:33:59;96031.47;;;14.62;48.29
11444;BME280;5778;47.856;12.154;2023-04-07T13:36:26;96042.22;;;15.04;49.88
11444;BME280;5778;47.856;12.154;2023-04-07T13:38:52;96035.88;;;15.19;48.55
11444;BME280;5778;47.856;12.154;2023-04-07T13:41:21;96026.31;;;15.13;48.31
11444;BME280;5778;47.856;12.154;2023-04-07T13:43:53;96025.88;;;14.82;50.03
11444;BME280;5778;47.856;12.154;2023-04-07T13:46:20;96033.03;;;15.10;49.44
11444;BME280;5778;47.856;12.154;2023-04-07T13:48:47;96033.56;;;14.89;50.81
11444;BME280;5778;47.856;12.154;2023-04-07T13:51:15;96030.38;;;14.87;52.34
11444;BME280;5778;47.856;12.154;2023-04-07T13:53:45;96030.94;;;15.07;51.82